Time;durP1;ratioP1;P1;durP2;ratioP2;P2;SDS_P1;SDS_P2;PMS_P1;PMS_P2;Temp;Humidity;BMP_temperature;BMP_pressure;BME280_temperature;BME280_humidity;BME280_pressure;Samples;Min_cycle;Max_cycle;Signal;HPM_P1;HPM_P2
2020/12/27 00:00:16;;;;;;;;;;;;;;;-8.05;91.79;92845.00;1061181;56;20303;-84
2020/12/27 00:01:17;;;;;;;;;;;;;;;-8.24;90.67;92842.72;1063557;55;20327;-81
2020/12/27 00:02:17;;;;;;;;;;;;;;;-8.23;90.51;92838.28;1065355;55;20739;-82
2020/12/27 00:03:18;;;;;;;;;;;;;;;-8.24;90.77;92829.75;1065489;55;20631;-82
2020/12/27 00:04:18;;;;;;;;;;;;;;;-8.22;91.08;92827.59;1067988;55;20161;-81
2020/12/27 00:05:20;;;;;;;;;;;;;;;-8.17;90.18;92835.22;1063168;55;20166;-82
2020/12/27 00:06:27;;;;;;;;;;;;;;;-8.18;89.71;92825.94;1061092;55;20686;-82
2020/12/27 00:07:27;;;;;;;;;;;;;;;-8.20;90.10;92824.72;1063449;55;20223;-82
2020/12/27 00:08:28;;;;;;;;;;;;;;;-8.13;90.20;92822.41;1063303;55;20165;-81
2020/12/27 00:09:28;;;;;;;;;;;;;;;-8.17;90.13;92822.25;1063218;55;20162;-82
2020/12/27 00:10:29;;;;;;;;;;;;;;;-8.21;90.69;92823.97;1063242;55;20158;-81
2020/12/27 00:11:29;;;;;;;;;;;;;;;-8.18;91.93;92815.56;1065402;55;20259;-82
2020/12/27 00:12:30;;;;;;;;;;;;;;;-8.23;91.21;92823.50;1065331;55;20254;-84
2020/12/27 00:13:30;;;;;;;;;;;;;;;-8.19;91.56;92821.06;1065387;55;20664;-83
2020/12/27 00:14:31;;;;;;;;;;;;;;;-8.16;91.63;92812.69;1063157;55;20154;-82
2020/12/27 00:15:31;;;;;;;;;;;;;;;-8.12;90.97;92813.56;1061017;56;20166;-81
2020/12/27 00:16:32;;;;;;;;;;;;;;;-8.07;90.69;92818.63;1065423;55;20177;-81
2020/12/27 00:17:32;;;;;;;;;;;;;;;-8.04;90.33;92823.16;1065341;55;20161;-81
2020/12/27 00:18:33;;;;;;;;;;;;;;;-8.04;90.13;92818.00;1065353;55;20170;-83
2020/12/27 00:19:33;;;;;;;;;;;;;;;-8.06;90.49;92811.59;1065580;55;20751;-82
2020/12/27 00:20:34;;;;;;;;;;;;;;;-8.11;91.08;92815.88;1063297;55;20173;-82
2020/12/27 00:21:34;;;;;;;;;;;;;;;-8.12;91.23;92811.75;1065425;55;20177;-82
2020/12/27 00:22:35;;;;;;;;;;;;;;;-8.10;91.61;92814.03;1065455;55;20157;-82
2020/12/27 00:23:36;;;;;;;;;;;;;;;-8.12;91.02;92809.16;1063031;55;20300;-81
2020/12/27 00:24:37;;;;;;;;;;;;;;;-8.01;91.73;92804.41;1062960;55;20255;-83
2020/12/27 00:25:38;;;;;;;;;;;;;;;-8.01;91.75;92803.66;1063380;55;20170;-81
2020/12/27 00:26:39;;;;;;;;;;;;;;;-8.07;90.55;92800.47;1063383;55;20982;-82
2020/12/27 00:27:40;;;;;;;;;;;;;;;-7.95;90.30;92784.25;1063176;55;20161;-81
2020/12/27 00:28:41;;;;;;;;;;;;;;;-8.03;90.94;92785.03;1065370;55;20176;-81
2020/12/27 00:29:44;;;;;;;;;;;;;;;-8.03;91.18;92788.41;1065567;55;20169;-82
2020/12/27 00:30:45;;;;;;;;;;;;;;;-8.05;90.93;92777.56;1063410;55;20224;-81
2020/12/27 00:31:49;;;;;;;;;;;;;;;-8.12;90.97;92769.50;1063255;55;20154;-81
2020/12/27 00:32:51;;;;;;;;;;;;;;;-8.06;90.53;92759.75;1063350;55;20204;-82
2020/12/27 00:33:52;;;;;;;;;;;;;;;-8.11;90.26;92758.06;1065342;55;20165;-82
2020/12/27 00:34:54;;;;;;;;;;;;;;;-8.08;90.49;92757.44;1065474;55;20196;-83
2020/12/27 00:35:57;;;;;;;;;;;;;;;-7.86;89.83;92748.69;1063210;55;20252;-81
2020/12/27 00:36:59;;;;;;;;;;;;;;;-7.95;90.30;92747.97;1063437;55;20682;-84
2020/12/27 00:37:59;;;;;;;;;;;;;;;-7.95;91.08;92745.37;1067472;55;20261;-82
2020/12/27 00:39:00;;;;;;;;;;;;;;;-7.88;91.01;92740.47;1065331;55;20286;-82
2020/12/27 00:40:00;;;;;;;;;;;;;;;-7.88;90.76;92745.66;1065443;55;20196;-82
2020/12/27 00:41:01;;;;;;;;;;;;;;;-7.94;91.78;92749.50;1067546;55;20183;-82
2020/12/27 00:42:02;;;;;;;;;;;;;;;-7.94;91.43;92750.25;1065377;55;20158;-83
2020/12/27 00:43:05;;;;;;;;;;;;;;;-7.92;91.45;92739.56;1063346;55;20201;-81
2020/12/27 00:44:10;;;;;;;;;;;;;;;-7.85;91.25;92742.47;1061270;56;20174;-81
2020/12/27 00:45:16;;;;;;;;;;;;;;;-7.93;91.21;92738.06;1062670;55;20634;-81
2020/12/27 00:46:19;;;;;;;;;;;;;;;-7.95;90.56;92727.22;1063226;55;20216;-83
2020/12/27 00:47:23;;;;;;;;;;;;;;;-7.90;90.42;92729.63;1063493;55;20259;-80
2020/12/27 00:48:24;;;;;;;;;;;;;;;-7.94;91.14;92718.38;1065814;55;20243;-82
2020/12/27 00:49:27;;;;;;;;;;;;;;;-8.11;90.54;92719.94;1061146;56;20221;-82
2020/12/27 00:50:27;;;;;;;;;;;;;;;-8.06;90.53;92711.25;1059098;56;20251;-81
2020/12/27 00:51:29;;;;;;;;;;;;;;;-8.18;90.31;92708.53;1063220;55;20189;-81
2020/12/27 00:52:32;;;;;;;;;;;;;;;-8.18;90.62;92708.53;1061130;56;20628;-82
2020/12/27 00:53:32;;;;;;;;;;;;;;;-8.22;90.83;92703.19;1061008;56;20177;-83
2020/12/27 00:54:33;;;;;;;;;;;;;;;-8.14;90.99;92696.47;1060991;56;20154;-83
2020/12/27 00:55:33;;;;;;;;;;;;;;;-8.02;91.18;92698.41;1063200;55;20680;-82
2020/12/27 00:56:34;;;;;;;;;;;;;;;-8.08;91.78;92695.22;1063334;55;20976;-83
2020/12/27 00:57:36;;;;;;;;;;;;;;;-8.04;91.26;92698.72;1061135;56;20185;-84
2020/12/27 00:58:39;;;;;;;;;;;;;;;-8.05;90.77;92706.81;1063290;55;20180;-82
2020/12/27 00:59:39;;;;;;;;;;;;;;;-8.00;90.56;92710.00;1063234;55;20158;-85
2020/12/27 01:00:40;;;;;;;;;;;;;;;-7.91;90.20;92702.19;1061012;56;20584;-82
2020/12/27 01:01:41;;;;;;;;;;;;;;;-7.79;89.69;92701.53;1058907;56;20226;-83
2020/12/27 01:02:43;;;;;;;;;;;;;;;-7.92;89.43;92705.84;1061014;56;20332;-83
2020/12/27 01:03:43;;;;;;;;;;;;;;;-7.94;89.71;92701.00;1061020;56;20276;-82
2020/12/27 01:04:43;;;;;;;;;;;;;;;-7.89;90.26;92694.88;1063024;55;20788;-82
2020/12/27 01:05:45;;;;;;;;;;;;;;;-7.91;90.40;92691.81;1063207;55;20189;-82
2020/12/27 01:06:46;;;;;;;;;;;;;;;-7.86;92.29;92687.22;1056871;56;20716;-83
2020/12/27 01:07:46;;;;;;;;;;;;;;;-7.93;91.99;92681.75;1061124;56;20154;-82
2020/12/27 01:08:47;;;;;;;;;;;;;;;-7.94;90.69;92682.06;1065791;55;20201;-82
2020/12/27 01:09:47;;;;;;;;;;;;;;;-7.93;89.59;92673.97;1063210;55;20150;-82
2020/12/27 01:10:48;;;;;;;;;;;;;;;-8.01;88.58;92677.34;1063227;55;20222;-83
2020/12/27 01:11:50;;;;;;;;;;;;;;;-8.07;88.04;92665.66;1063140;55;20161;-82
2020/12/27 01:12:51;;;;;;;;;;;;;;;-8.08;89.92;92665.94;1061730;56;20157;-81
2020/12/27 01:13:51;;;;;;;;;;;;;;;-8.20;89.60;92666.59;1063676;55;20220;-80
2020/12/27 01:14:52;;;;;;;;;;;;;;;-8.20;89.55;92664.78;1063439;55;20654;-83
2020/12/27 01:15:52;;;;;;;;;;;;;;;-8.15;89.65;92663.84;1061327;56;20162;-85
2020/12/27 01:16:53;;;;;;;;;;;;;;;-8.09;89.73;92659.25;1061495;56;20741;-83
2020/12/27 01:17:53;;;;;;;;;;;;;;;-8.24;89.56;92656.09;1061371;56;20272;-83
2020/12/27 01:18:54;;;;;;;;;;;;;;;-8.08;89.61;92655.56;1061466;56;20169;-82
2020/12/27 01:19:54;;;;;;;;;;;;;;;-8.23;89.62;92652.41;1059351;56;20660;-81
2020/12/27 01:20:55;;;;;;;;;;;;;;;-8.22;89.72;92659.13;1061361;56;20705;-81
2020/12/27 01:21:55;;;;;;;;;;;;;;;-8.27;90.42;92655.94;1059241;56;20174;-81
2020/12/27 01:22:56;;;;;;;;;;;;;;;-8.26;90.15;92652.28;1057191;56;20199;-82
2020/12/27 01:23:58;;;;;;;;;;;;;;;-8.11;89.97;92655.13;1056903;56;20197;-82
2020/12/27 01:25:00;;;;;;;;;;;;;;;-8.10;89.73;92658.47;1061243;56;20158;-82
2020/12/27 01:26:01;;;;;;;;;;;;;;;-8.09;89.02;92654.81;1063333;55;20158;-82
2020/12/27 01:27:02;;;;;;;;;;;;;;;-8.19;89.03;92650.72;1061207;56;20158;-82
2020/12/27 01:28:03;;;;;;;;;;;;;;;-8.18;89.24;92649.66;1063568;55;20184;-82
2020/12/27 01:29:05;;;;;;;;;;;;;;;-8.19;90.53;92637.00;1061393;56;20162;-83
2020/12/27 01:30:08;;;;;;;;;;;;;;;-8.15;90.77;92638.66;1061621;55;20181;-81
2020/12/27 01:31:09;;;;;;;;;;;;;;;-8.15;90.12;92637.91;1061161;56;20209;-82
2020/12/27 01:32:09;;;;;;;;;;;;;;;-8.18;90.02;92633.34;1059115;56;20159;-83
2020/12/27 01:33:11;;;;;;;;;;;;;;;-8.16;90.04;92636.41;1063306;55;20954;-82
2020/12/27 01:34:13;;;;;;;;;;;;;;;-8.20;90.95;92632.91;1063283;55;20192;-85
2020/12/27 01:35:14;;;;;;;;;;;;;;;-8.24;90.58;92639.78;1058943;56;20663;-82
2020/12/27 01:36:22;;;;;;;;;;;;;;;-8.20;91.39;92636.25;1059092;56;20197;-83
2020/12/27 01:37:22;;;;;;;;;;;;;;;-8.20;91.03;92631.06;1061428;56;20170;-83
2020/12/27 01:38:23;;;;;;;;;;;;;;;-8.16;92.03;92634.56;1063440;55;20173;-81
2020/12/27 01:39:23;;;;;;;;;;;;;;;-8.13;91.83;92639.09;1065460;55;20165;-81
2020/12/27 01:40:24;;;;;;;;;;;;;;;-8.20;91.00;92638.84;1059099;56;20159;-81
2020/12/27 01:41:24;;;;;;;;;;;;;;;-8.20;90.40;92635.50;1059035;56;20182;-82
2020/12/27 01:42:25;;;;;;;;;;;;;;;-8.21;90.28;92634.75;1061259;56;20193;-82
2020/12/27 01:43:26;;;;;;;;;;;;;;;-8.24;91.06;92632.75;1061118;56;20666;-82
2020/12/27 01:44:27;;;;;;;;;;;;;;;-8.12;90.79;92630.28;1058868;56;20265;-81
2020/12/27 01:45:27;;;;;;;;;;;;;;;-8.07;90.79;92634.53;1059744;56;20251;-82
2020/12/27 01:46:28;;;;;;;;;;;;;;;-8.06;91.45;92619.72;1063226;55;20181;-82
2020/12/27 01:47:33;;;;;;;;;;;;;;;-8.05;91.67;92623.84;1061108;56;20189;-82
2020/12/27 01:48:33;;;;;;;;;;;;;;;-7.99;90.39;92617.41;1059125;56;20162;-84
2020/12/27 01:49:34;;;;;;;;;;;;;;;-7.94;90.04;92623.19;1063126;55;20263;-82
2020/12/27 01:50:35;;;;;;;;;;;;;;;-8.02;90.46;92623.97;1063118;55;20184;-81
2020/12/27 01:51:36;;;;;;;;;;;;;;;-7.92;89.86;92625.47;1063193;55;20172;-82
2020/12/27 01:52:36;;;;;;;;;;;;;;;-8.00;90.02;92626.25;1063122;55;20170;-82
2020/12/27 01:53:37;;;;;;;;;;;;;;;-7.99;90.37;92622.59;1063219;55;20635;-82
2020/12/27 01:54:38;;;;;;;;;;;;;;;-7.98;90.24;92624.13;1063120;55;20251;-83
2020/12/27 01:55:39;;;;;;;;;;;;;;;-8.03;90.18;92630.25;1061019;56;20274;-82
2020/12/27 01:56:41;;;;;;;;;;;;;;;-7.95;90.73;92624.25;1061088;56;20161;-82
2020/12/27 01:57:53;;;;;;;;;;;;;;;-7.89;91.25;92619.66;1058975;56;20154;-82
2020/12/27 01:58:57;;;;;;;;;;;;;;;-7.89;91.34;92611.88;1061984;55;20776;-81
2020/12/27 01:59:58;;;;;;;;;;;;;;;-7.83;91.31;92604.66;1061058;56;20166;-81
2020/12/27 02:00:58;;;;;;;;;;;;;;;-7.83;91.07;92600.25;1061039;56;20650;-81
2020/12/27 02:01:59;;;;;;;;;;;;;;;-7.87;90.30;92594.91;1060963;56;20159;-82
2020/12/27 02:03:00;;;;;;;;;;;;;;;-7.95;90.48;92605.31;1060958;56;20174;-82
2020/12/27 02:04:02;;;;;;;;;;;;;;;-7.95;90.66;92598.31;1060976;56;20166;-82
2020/12/27 02:05:02;;;;;;;;;;;;;;;-7.93;90.84;92590.22;1058911;56;21136;-83
2020/12/27 02:06:04;;;;;;;;;;;;;;;-7.94;91.15;92593.91;1063193;55;20185;-82
2020/12/27 02:07:04;;;;;;;;;;;;;;;-7.96;91.19;92606.41;1063247;55;20579;-81
2020/12/27 02:08:05;;;;;;;;;;;;;;;-7.96;91.84;92578.66;1058937;56;20181;-82
2020/12/27 02:09:12;;;;;;;;;;;;;;;-7.96;90.85;92585.66;1061109;56;20190;-82
2020/12/27 02:10:12;;;;;;;;;;;;;;;-7.94;90.77;92586.13;1063122;55;20715;-82
2020/12/27 02:11:13;;;;;;;;;;;;;;;-7.85;89.99;92584.25;1063078;55;20178;-82
2020/12/27 02:12:13;;;;;;;;;;;;;;;-7.83;90.00;92581.31;1063237;55;20173;-81
2020/12/27 02:13:14;;;;;;;;;;;;;;;-7.83;91.65;92578.72;1063086;55;20172;-81
2020/12/27 02:14:14;;;;;;;;;;;;;;;-7.81;91.29;92572.16;1063046;55;20162;-82
2020/12/27 02:15:15;;;;;;;;;;;;;;;-7.90;90.55;92574.03;1063033;55;20150;-82
2020/12/27 02:16:19;;;;;;;;;;;;;;;-7.85;90.51;92568.69;1063193;55;20177;-83
2020/12/27 02:17:19;;;;;;;;;;;;;;;-7.84;90.32;92565.00;1060955;55;20176;-82
2020/12/27 02:18:21;;;;;;;;;;;;;;;-7.84;89.94;92559.81;1061002;55;20267;-82
2020/12/27 02:19:21;;;;;;;;;;;;;;;-7.80;89.84;92563.31;1060902;56;20682;-83
2020/12/27 02:20:22;;;;;;;;;;;;;;;-7.80;91.24;92558.12;1058826;56;20571;-82
2020/12/27 02:21:23;;;;;;;;;;;;;;;-7.75;90.85;92559.78;1060957;56;20619;-82
2020/12/27 02:22:23;;;;;;;;;;;;;;;-7.81;90.55;92550.62;1062994;55;20619;-82
2020/12/27 02:23:23;;;;;;;;;;;;;;;-7.88;90.56;92544.13;1063172;55;20200;-83
2020/12/27 02:24:24;;;;;;;;;;;;;;;-7.83;90.42;92540.59;1060928;56;20708;-83
2020/12/27 02:25:25;;;;;;;;;;;;;;;-7.83;89.83;92537.25;1060919;56;20163;-82
2020/12/27 02:26:26;;;;;;;;;;;;;;;-7.79;89.72;92536.28;1063109;55;20193;-83
2020/12/27 02:27:30;;;;;;;;;;;;;;;-7.78;89.60;92522.25;1063109;55;20166;-83
2020/12/27 02:28:31;;;;;;;;;;;;;;;-7.73;89.79;92519.44;1060926;56;20258;-83
2020/12/27 02:29:35;;;;;;;;;;;;;;;-7.70;89.87;92513.63;1062956;55;20189;-81
2020/12/27 02:30:35;;;;;;;;;;;;;;;-7.50;89.98;92512.12;1065288;55;20213;-82
2020/12/27 02:31:36;;;;;;;;;;;;;;;-7.44;89.00;92502.31;1065674;55;20160;-82
2020/12/27 02:32:36;;;;;;;;;;;;;;;-7.60;89.53;92505.47;1063123;55;20630;-82
2020/12/27 02:33:37;;;;;;;;;;;;;;;-7.47;89.60;92498.50;1060922;56;20638;-85
2020/12/27 02:34:37;;;;;;;;;;;;;;;-7.45;90.97;92500.78;1058796;56;21206;-82
2020/12/27 02:35:38;;;;;;;;;;;;;;;-7.51;90.53;92476.84;1058803;56;20154;-82
2020/12/27 02:36:38;;;;;;;;;;;;;;;-7.55;90.83;92488.97;1060893;56;20658;-82
2020/12/27 02:37:39;;;;;;;;;;;;;;;-7.49;91.56;92477.31;1060962;56;20186;-81
2020/12/27 02:38:39;;;;;;;;;;;;;;;-7.40;91.52;92469.44;1060898;56;20161;-81
2020/12/27 02:39:40;;;;;;;;;;;;;;;-7.40;90.93;92470.19;1063089;55;20603;-83
2020/12/27 02:40:41;;;;;;;;;;;;;;;-7.42;90.89;92463.81;1063076;55;20184;-82
2020/12/27 02:41:41;;;;;;;;;;;;;;;-7.45;90.68;92465.22;1060895;56;20153;-82
2020/12/27 02:42:42;;;;;;;;;;;;;;;-7.41;90.95;92455.72;1060866;56;20154;-81
2020/12/27 02:43:44;;;;;;;;;;;;;;;-7.49;90.74;92461.75;1060865;56;20166;-82
2020/12/27 02:45:10;;;;;;;;;;;;;;;-7.52;90.90;92448.63;1060761;56;20158;-81
2020/12/27 02:46:09;;;;;;;;;;;;;;;-7.36;91.59;92447.72;1061391;55;20189;-83
2020/12/27 02:47:10;;;;;;;;;;;;;;;-7.37;90.96;92454.00;1060893;56;20158;-81
2020/12/27 02:48:10;;;;;;;;;;;;;;;-7.35;90.17;92438.84;1063005;55;20637;-82
2020/12/27 02:49:11;;;;;;;;;;;;;;;-7.36;91.38;92434.75;1062934;55;20166;-82
2020/12/27 02:50:12;;;;;;;;;;;;;;;-7.28;91.37;92435.75;1063003;55;20184;-83
2020/12/27 02:51:13;;;;;;;;;;;;;;;-7.22;91.77;92444.84;1063112;55;20760;-81
2020/12/27 02:52:14;;;;;;;;;;;;;;;-7.16;91.60;92435.75;1058802;56;20636;-83
2020/12/27 02:53:15;;;;;;;;;;;;;;;-7.16;91.25;92435.75;1058781;56;20154;-83
2020/12/27 02:54:15;;;;;;;;;;;;;;;-7.16;90.92;92435.00;1063060;55;20162;-82
2020/12/27 02:55:16;;;;;;;;;;;;;;;-7.29;90.38;92423.06;1065187;55;20610;-82
2020/12/27 02:56:17;;;;;;;;;;;;;;;-7.23;91.13;92435.53;1063014;55;20172;-81
2020/12/27 02:57:18;;;;;;;;;;;;;;;-7.27;91.17;92434.66;1060991;56;20571;-82
2020/12/27 02:58:18;;;;;;;;;;;;;;;-7.17;91.64;92431.63;1063081;55;20162;-83
2020/12/27 02:59:19;;;;;;;;;;;;;;;-7.24;90.55;92434.03;1063048;55;20172;-83
2020/12/27 03:00:20;;;;;;;;;;;;;;;-7.32;90.50;92424.47;1060834;56;20568;-83
2020/12/27 03:01:21;;;;;;;;;;;;;;;-7.30;90.39;92413.78;1058740;56;20634;-82
2020/12/27 03:02:22;;;;;;;;;;;;;;;-7.30;90.44;92405.97;1060887;56;20158;-82
2020/12/27 03:03:23;;;;;;;;;;;;;;;-7.20;90.60;92400.38;1060804;56;20158;-83
2020/12/27 03:04:23;;;;;;;;;;;;;;;-7.17;91.14;92397.13;1063012;55;20650;-83
2020/12/27 03:05:23;;;;;;;;;;;;;;;-7.13;90.83;92392.81;1060918;56;20165;-82
2020/12/27 03:06:24;;;;;;;;;;;;;;;-7.18;91.02;92387.84;1058800;56;20170;-82
2020/12/27 03:07:24;;;;;;;;;;;;;;;-7.17;90.31;92397.13;1060909;56;20201;-82
2020/12/27 03:08:26;;;;;;;;;;;;;;;-7.21;89.51;92384.03;1063029;56;20169;-82
2020/12/27 03:09:26;;;;;;;;;;;;;;;-7.18;89.46;92385.25;1060917;56;20627;-82
2020/12/27 03:10:27;;;;;;;;;;;;;;;-7.14;90.91;92378.31;1060849;56;20178;-82
2020/12/27 03:11:27;;;;;;;;;;;;;;;-7.05;91.81;92378.97;1060817;56;20166;-82
2020/12/27 03:12:28;;;;;;;;;;;;;;;-7.04;90.44;92372.69;1060868;56;20159;-82
2020/12/27 03:13:28;;;;;;;;;;;;;;;-7.14;90.75;92373.88;1060854;56;20576;-82
2020/12/27 03:14:29;;;;;;;;;;;;;;;-7.13;90.66;92378.00;1060846;56;20260;-83
2020/12/27 03:15:29;;;;;;;;;;;;;;;-7.23;90.34;92368.03;1058683;56;20296;-81
2020/12/27 03:16:30;;;;;;;;;;;;;;;-7.21;91.10;92362.50;1058754;56;20182;-83
2020/12/27 03:17:30;;;;;;;;;;;;;;;-7.17;90.48;92366.72;1060911;56;20154;-82
2020/12/27 03:18:31;;;;;;;;;;;;;;;-7.18;90.83;92367.81;1060824;56;20655;-82
2020/12/27 03:19:32;;;;;;;;;;;;;;;-7.15;90.68;92362.00;1063063;56;20177;-82
2020/12/27 03:20:32;;;;;;;;;;;;;;;-7.19;89.51;92355.16;1062862;56;20153;-82
2020/12/27 03:21:33;;;;;;;;;;;;;;;-7.20;89.52;92366.63;1062962;56;20184;-82
2020/12/27 03:22:33;;;;;;;;;;;;;;;-7.16;89.65;92364.87;1062987;56;20216;-82
2020/12/27 03:23:34;;;;;;;;;;;;;;;-7.21;89.65;92367.69;1058745;56;20655;-82
2020/12/27 03:24:34;;;;;;;;;;;;;;;-7.19;90.25;92365.56;1060845;56;20263;-82
2020/12/27 03:25:35;;;;;;;;;;;;;;;-7.29;90.25;92365.97;1062966;56;20189;-81
2020/12/27 03:26:35;;;;;;;;;;;;;;;-7.33;90.46;92363.28;1060938;56;20174;-83
2020/12/27 03:27:36;;;;;;;;;;;;;;;-7.27;91.16;92363.81;1060924;56;20632;-82
2020/12/27 03:28:37;;;;;;;;;;;;;;;-7.33;91.00;92371.06;1062929;56;20232;-81
2020/12/27 03:29:37;;;;;;;;;;;;;;;-7.29;91.63;92371.91;1063099;56;20157;-83
2020/12/27 03:30:38;;;;;;;;;;;;;;;-7.23;92.09;92367.28;1063018;56;20162;-82
2020/12/27 03:31:39;;;;;;;;;;;;;;;-7.33;90.95;92372.88;1060855;56;20161;-82
2020/12/27 03:32:39;;;;;;;;;;;;;;;-7.28;91.13;92380.47;1060797;56;20150;-80
2020/12/27 03:33:40;;;;;;;;;;;;;;;-7.20;91.41;92377.00;1062925;56;20157;-81
2020/12/27 03:34:41;;;;;;;;;;;;;;;-7.10;91.53;92372.16;1065184;55;20169;-81
2020/12/27 03:35:41;;;;;;;;;;;;;;;-7.12;91.05;92374.31;1060771;56;20255;-81
2020/12/27 03:36:42;;;;;;;;;;;;;;;-7.05;90.64;92378.97;1056512;56;20703;-82
2020/12/27 03:37:42;;;;;;;;;;;;;;;-7.11;90.38;92365.44;1060878;56;20170;-82
2020/12/27 03:38:43;;;;;;;;;;;;;;;-7.03;89.59;92365.66;1060738;56;20197;-81
2020/12/27 03:39:43;;;;;;;;;;;;;;;-7.09;89.82;92367.72;1056468;56;20225;-81
2020/12/27 03:40:44;;;;;;;;;;;;;;;-7.07;89.25;92367.38;1058737;56;20166;-84
2020/12/27 03:41:44;;;;;;;;;;;;;;;-7.08;90.42;92363.28;1058670;56;20170;-82
2020/12/27 03:42:45;;;;;;;;;;;;;;;-7.12;89.63;92376.16;1058759;56;20616;-82
2020/12/27 03:43:46;;;;;;;;;;;;;;;-7.11;90.25;92365.44;1060895;56;20259;-82
2020/12/27 03:44:46;;;;;;;;;;;;;;;-7.05;90.51;92362.63;1062825;56;20173;-82
2020/12/27 03:45:47;;;;;;;;;;;;;;;-7.13;90.22;92356.47;1064458;55;20157;-82
2020/12/27 03:46:47;;;;;;;;;;;;;;;-7.13;90.37;92348.69;1065153;55;20197;-82
2020/12/27 03:47:48;;;;;;;;;;;;;;;-7.04;90.29;92336.34;1065153;55;20165;-82
2020/12/27 03:48:48;;;;;;;;;;;;;;;-7.06;89.50;92335.91;1060804;56;20659;-81
2020/12/27 03:49:50;;;;;;;;;;;;;;;-7.05;90.08;92328.88;1060816;56;20213;-82
2020/12/27 03:50:52;;;;;;;;;;;;;;;-7.03;90.06;92332.66;1062860;56;20157;-83
2020/12/27 03:51:53;;;;;;;;;;;;;;;-7.04;90.23;92320.75;1060707;56;20248;-81
2020/12/27 03:52:53;;;;;;;;;;;;;;;-7.00;90.21;92323.47;1060729;56;20181;-83
2020/12/27 03:53:54;;;;;;;;;;;;;;;-7.11;89.86;92320.56;1060931;56;20174;-81
2020/12/27 03:54:56;;;;;;;;;;;;;;;-7.19;90.44;92314.38;1058690;56;20174;-82
2020/12/27 03:55:57;;;;;;;;;;;;;;;-7.11;90.67;92307.56;1056635;56;20635;-82
2020/12/27 03:56:57;;;;;;;;;;;;;;;-7.03;90.67;92305.94;1058702;56;20194;-83
2020/12/27 03:57:58;;;;;;;;;;;;;;;-7.01;91.67;92308.97;1060969;56;20606;-81
2020/12/27 03:58:59;;;;;;;;;;;;;;;-7.01;90.91;92298.59;1063269;55;20184;-82
2020/12/27 04:00:03;;;;;;;;;;;;;;;-7.09;90.54;92300.22;1063232;55;20583;-82
2020/12/27 04:01:03;;;;;;;;;;;;;;;-7.02;90.76;92297.84;1061151;56;20272;-82
2020/12/27 04:02:04;;;;;;;;;;;;;;;-6.99;90.51;92291.22;1061253;56;20281;-81
2020/12/27 04:03:04;;;;;;;;;;;;;;;-6.99;90.52;92289.38;1063354;55;20161;-81
2020/12/27 04:04:05;;;;;;;;;;;;;;;-7.05;90.67;92287.34;1063270;55;20282;-82
2020/12/27 04:05:06;;;;;;;;;;;;;;;-7.03;90.97;92287.75;1061099;56;20172;-81
2020/12/27 04:06:09;;;;;;;;;;;;;;;-7.11;90.39;92279.00;1058998;56;20166;-82
2020/12/27 04:07:09;;;;;;;;;;;;;;;-7.04;91.35;92273.25;1061146;56;20158;-82
2020/12/27 04:08:10;;;;;;;;;;;;;;;-7.08;90.57;92275.75;1061114;56;20174;-82
2020/12/27 04:09:11;;;;;;;;;;;;;;;-7.12;91.19;92273.03;1061131;56;20221;-82
2020/12/27 04:10:12;;;;;;;;;;;;;;;-7.12;90.77;92267.84;1063232;55;20650;-83
2020/12/27 04:11:14;;;;;;;;;;;;;;;-7.10;91.23;92265.69;1063324;55;20186;-83
2020/12/27 04:12:15;;;;;;;;;;;;;;;-7.14;90.94;92257.03;1063303;55;20165;-82
2020/12/27 04:13:17;;;;;;;;;;;;;;;-7.05;90.96;92250.97;1063238;55;20574;-82
2020/12/27 04:14:20;;;;;;;;;;;;;;;-7.12;91.06;92247.06;1058932;56;20714;-82
2020/12/27 04:15:20;;;;;;;;;;;;;;;-7.07;92.05;92253.12;1059053;56;20252;-82
2020/12/27 04:16:22;;;;;;;;;;;;;;;-7.08;91.75;92246.44;1061102;56;20575;-81
2020/12/27 04:17:24;;;;;;;;;;;;;;;-7.05;91.85;92250.97;1059109;56;20188;-81
2020/12/27 04:18:25;;;;;;;;;;;;;;;-7.15;91.23;92241.81;1061142;56;20162;-82
2020/12/27 04:19:26;;;;;;;;;;;;;;;-7.15;91.14;92244.41;1061073;56;20154;-81
2020/12/27 04:20:26;;;;;;;;;;;;;;;-7.26;91.12;92238.12;1063250;55;20716;-81
2020/12/27 04:21:27;;;;;;;;;;;;;;;-7.19;90.74;92243.53;1063242;55;21196;-82
2020/12/27 04:22:27;;;;;;;;;;;;;;;-7.28;91.11;92235.88;1063245;55;20158;-81
2020/12/27 04:23:28;;;;;;;;;;;;;;;-7.22;90.90;92238.97;1061153;56;20193;-81
2020/12/27 04:24:29;;;;;;;;;;;;;;;-7.24;90.87;92231.53;1063330;55;20739;-82
2020/12/27 04:25:30;;;;;;;;;;;;;;;-7.25;90.89;92237.03;1065391;55;20254;-82
2020/12/27 04:26:32;;;;;;;;;;;;;;;-7.26;91.53;92230.34;1063122;55;21020;-82
2020/12/27 04:27:33;;;;;;;;;;;;;;;-7.09;92.79;92232.69;1061162;56;20149;-82
2020/12/27 04:28:33;;;;;;;;;;;;;;;-7.18;91.88;92226.87;1058907;56;20167;-82
2020/12/27 04:29:34;;;;;;;;;;;;;;;-7.20;91.64;92222.00;1061143;56;20185;-81
2020/12/27 04:30:34;;;;;;;;;;;;;;;-7.11;91.61;92217.44;1061139;56;20158;-82
2020/12/27 04:31:35;;;;;;;;;;;;;;;-7.07;91.17;92214.19;1063317;55;20169;-81
2020/12/27 04:32:35;;;;;;;;;;;;;;;-7.13;91.02;92211.06;1065711;55;20177;-83
2020/12/27 04:33:36;;;;;;;;;;;;;;;-7.14;91.05;92215.50;1065427;55;20161;-81
2020/12/27 04:34:36;;;;;;;;;;;;;;;-7.10;91.18;92215.59;1063300;55;20548;-82
2020/12/27 04:35:37;;;;;;;;;;;;;;;-7.13;90.96;92209.22;1061162;56;20166;-84
2020/12/27 04:36:37;;;;;;;;;;;;;;;-7.15;91.14;92215.84;1061071;56;20166;-81
2020/12/27 04:37:38;;;;;;;;;;;;;;;-7.17;92.10;92205.75;1063360;55;20169;-83
2020/12/27 04:38:38;;;;;;;;;;;;;;;-7.11;92.14;92206.31;1063153;55;20177;-83
2020/12/27 04:39:39;;;;;;;;;;;;;;;-7.14;91.45;92194.72;1063210;55;20564;-83
2020/12/27 04:40:42;;;;;;;;;;;;;;;-7.15;91.88;92200.25;1060998;56;20185;-81
2020/12/27 04:41:43;;;;;;;;;;;;;;;-7.18;91.87;92196.47;1059121;56;20154;-82
2020/12/27 04:42:47;;;;;;;;;;;;;;;-7.26;91.96;92194.75;1063392;55;20195;-81
2020/12/27 04:43:48;;;;;;;;;;;;;;;-7.30;91.41;92193.12;1063169;55;20170;-81
2020/12/27 04:44:54;;;;;;;;;;;;;;;-7.20;91.87;92185.66;1063157;55;20595;-81
2020/12/27 04:45:57;;;;;;;;;;;;;;;-7.17;91.37;92184.25;1064964;55;20170;-82
2020/12/27 04:47:01;;;;;;;;;;;;;;;-7.28;91.09;92178.75;1061213;56;20154;-82
2020/12/27 04:48:01;;;;;;;;;;;;;;;-7.30;91.62;92186.09;1063157;55;20723;-83
2020/12/27 04:49:02;;;;;;;;;;;;;;;-7.34;91.42;92195.63;1061055;56;20259;-83
2020/12/27 04:50:03;;;;;;;;;;;;;;;-7.31;91.20;92183.84;1063152;55;20157;-83
2020/12/27 04:51:04;;;;;;;;;;;;;;;-7.28;91.55;92183.94;1065512;55;20734;-82
2020/12/27 04:52:10;;;;;;;;;;;;;;;-7.25;91.57;92182.53;1065379;55;20781;-81
2020/12/27 04:53:12;;;;;;;;;;;;;;;-7.27;92.05;92182.09;1063335;55;20165;-82
2020/12/27 04:54:13;;;;;;;;;;;;;;;-7.27;91.91;92171.72;1063133;55;20158;-83
2020/12/27 04:55:14;;;;;;;;;;;;;;;-7.21;92.18;92178.19;1063305;55;20162;-82
2020/12/27 04:56:17;;;;;;;;;;;;;;;-7.22;91.89;92180.03;1065358;55;20180;-83
2020/12/27 04:57:18;;;;;;;;;;;;;;;-7.27;91.52;92185.44;1067615;55;20158;-81
2020/12/27 04:58:22;;;;;;;;;;;;;;;-7.14;91.05;92181.75;1063185;55;20712;-83
2020/12/27 04:59:24;;;;;;;;;;;;;;;-7.21;90.55;92175.59;1063591;55;20185;-82
2020/12/27 05:00:25;;;;;;;;;;;;;;;-7.31;91.15;92178.66;1067542;55;20184;-82
2020/12/27 05:01:26;;;;;;;;;;;;;;;-7.32;91.89;92167.50;1067563;55;20161;-81
2020/12/27 05:02:29;;;;;;;;;;;;;;;-7.32;92.68;92169.34;1063296;55;20575;-82
2020/12/27 05:03:30;;;;;;;;;;;;;;;-7.36;92.11;92175.19;1063300;55;20153;-81
2020/12/27 05:04:30;;;;;;;;;;;;;;;-7.44;91.13;92160.50;1063114;55;20188;-81
2020/12/27 05:05:31;;;;;;;;;;;;;;;-7.40;91.46;92176.94;1065274;55;20249;-81
2020/12/27 05:06:31;;;;;;;;;;;;;;;-7.40;92.03;92168.38;1067440;55;20249;-85
2020/12/27 05:07:32;;;;;;;;;;;;;;;-7.38;91.87;92164.38;1067445;55;20180;-82
2020/12/27 05:08:34;;;;;;;;;;;;;;;-7.30;92.08;92164.59;1067451;55;20153;-82
2020/12/27 05:09:35;;;;;;;;;;;;;;;-7.26;92.56;92162.84;1063066;55;20213;-82
2020/12/27 05:10:40;;;;;;;;;;;;;;;-7.27;92.09;92159.50;1063125;55;20636;-81
2020/12/27 05:11:41;;;;;;;;;;;;;;;-7.25;92.12;92159.91;1063322;55;20189;-82
2020/12/27 05:12:43;;;;;;;;;;;;;;;-7.30;92.11;92154.19;1063231;55;20189;-82
2020/12/27 05:13:46;;;;;;;;;;;;;;;-7.32;92.37;92154.53;1065330;55;20169;-83
2020/12/27 05:14:47;;;;;;;;;;;;;;;-7.21;92.73;92147.03;1061167;56;20643;-82
2020/12/27 05:15:47;;;;;;;;;;;;;;;-7.16;92.06;92144.97;1061013;56;20162;-82
2020/12/27 05:16:51;;;;;;;;;;;;;;;-7.23;91.95;92141.44;1063165;55;20286;-83
2020/12/27 05:17:52;;;;;;;;;;;;;;;-7.20;92.36;92144.13;1063147;55;20166;-81
2020/12/27 05:18:52;;;;;;;;;;;;;;;-7.16;92.24;92142.37;1065276;55;20158;-83